sensor_id;sensor_type;location;lat;lon;timestamp;P1;durP1;ratioP1;P2;durP2;ratioP2
32106;SDS011;18622;51.998;10.440;2022-12-29T03:17:58;2.87;;;1.15;;
32106;SDS011;18622;51.998;10.440;2022-12-29T03:20:49;3.10;;;1.35;;
32106;SDS011;18622;51.998;10.440;2022-12-29T03:23:13;1.43;;;0.80;;
32106;SDS011;18622;51.998;10.440;2022-12-29T03:25:44;1.82;;;0.98;;
32106;SDS011;18622;51.998;10.440;2022-12-29T03:28:35;2.12;;;0.80;;
32106;SDS011;18622;51.998;10.440;2022-12-29T03:30:47;0.87;;;0.70;;
32106;SDS011;18622;51.998;10.440;2022-12-29T03:33:16;3.73;;;1.03;;
32106;SDS011;18622;51.998;10.440;2022-12-29T03:35:45;1.00;;;0.80;;
32106;SDS011;18622;51.998;10.440;2022-12-29T03:38:17;3.20;;;1.13;;
32106;SDS011;18622;51.998;10.440;2022-12-29T03:40:49;0.70;;;0.70;;
32106;SDS011;18622;51.998;10.440;2022-12-29T03:43:17;2.83;;;1.82;;
32106;SDS011;18622;51.998;10.440;2022-12-29T03:45:45;2.10;;;1.27;;
32106;SDS011;18622;51.998;10.440;2022-12-29T03:48:13;1.43;;;0.90;;
32106;SDS011;18622;51.998;10.440;2022-12-29T03:50:41;1.90;;;0.80;;
32106;SDS011;18622;51.998;10.440;2022-12-29T03:53:09;1.60;;;1.13;;
32106;SDS011;18622;51.998;10.440;2022-12-29T03:55:36;2.53;;;1.33;;
32106;SDS011;18622;51.998;10.440;2022-12-29T03:58:04;1.10;;;0.70;;
32106;SDS011;18622;51.998;10.440;2022-12-29T04:35:06;1.47;;;0.80;;
32106;SDS011;18622;51.998;10.440;2022-12-29T04:37:34;0.83;;;0.70;;
32106;SDS011;18622;51.998;10.440;2022-12-29T04:40:02;2.10;;;0.67;;
32106;SDS011;18622;51.998;10.440;2022-12-29T04:42:30;2.23;;;0.90;;
32106;SDS011;18622;51.998;10.440;2022-12-29T04:44:57;2.33;;;0.63;;
32106;SDS011;18622;51.998;10.440;2022-12-29T04:47:25;0.60;;;0.50;;
32106;SDS011;18622;51.998;10.440;2022-12-29T04:49:53;2.50;;;0.57;;
32106;SDS011;18622;51.998;10.440;2022-12-29T04:52:21;1.73;;;1.00;;
32106;SDS011;18622;51.998;10.440;2022-12-29T04:54:49;1.63;;;0.70;;
32106;SDS011;18622;51.998;10.440;2022-12-29T04:57:16;1.17;;;0.70;;
32106;SDS011;18622;51.998;10.440;2022-12-29T04:59:44;2.07;;;0.70;;
32106;SDS011;18622;51.998;10.440;2022-12-29T05:02:12;2.20;;;0.60;;
32106;SDS011;18622;51.998;10.440;2022-12-29T05:04:40;2.47;;;0.70;;
32106;SDS011;18622;51.998;10.440;2022-12-29T05:07:08;2.47;;;0.60;;
32106;SDS011;18622;51.998;10.440;2022-12-29T05:09:35;1.37;;;1.03;;
32106;SDS011;18622;51.998;10.440;2022-12-29T05:12:03;2.83;;;0.60;;
32106;SDS011;18622;51.998;10.440;2022-12-29T05:14:31;1.67;;;0.60;;
32106;SDS011;18622;51.998;10.440;2022-12-29T05:16:59;1.53;;;0.70;;
32106;SDS011;18622;51.998;10.440;2022-12-29T05:19:27;0.43;;;0.43;;
32106;SDS011;18622;51.998;10.440;2022-12-29T05:21:55;1.63;;;0.57;;
32106;SDS011;18622;51.998;10.440;2022-12-29T05:24:23;0.97;;;0.60;;
32106;SDS011;18622;51.998;10.440;2022-12-29T05:26:50;1.07;;;0.70;;
32106;SDS011;18622;51.998;10.440;2022-12-29T05:29:18;0.67;;;0.30;;
32106;SDS011;18622;51.998;10.440;2022-12-29T05:31:46;0.60;;;0.50;;
32106;SDS011;18622;51.998;10.440;2022-12-29T05:34:14;0.67;;;0.30;;
32106;SDS011;18622;51.998;10.440;2022-12-29T05:36:41;1.77;;;0.50;;
32106;SDS011;18622;51.998;10.440;2022-12-29T05:39:09;1.50;;;0.70;;
32106;SDS011;18622;51.998;10.440;2022-12-29T05:41:37;2.10;;;0.60;;
32106;SDS011;18622;51.998;10.440;2022-12-29T05:44:05;1.90;;;0.40;;
32106;SDS011;18622;51.998;10.440;2022-12-29T05:46:33;0.40;;;0.40;;
32106;SDS011;18622;51.998;10.440;2022-12-29T05:49:00;0.87;;;0.40;;
32106;SDS011;18622;51.998;10.440;2022-12-29T05:51:28;3.10;;;0.50;;
32106;SDS011;18622;51.998;10.440;2022-12-29T05:53:56;0.43;;;0.20;;
32106;SDS011;18622;51.998;10.440;2022-12-29T05:56:24;3.37;;;0.43;;
32106;SDS011;18622;51.998;10.440;2022-12-29T05:58:52;2.20;;;0.60;;
32106;SDS011;18622;51.998;10.440;2022-12-29T06:01:19;0.80;;;0.43;;
32106;SDS011;18622;51.998;10.440;2022-12-29T06:03:47;0.43;;;0.43;;
32106;SDS011;18622;51.998;10.440;2022-12-29T06:06:15;1.83;;;0.50;;
32106;SDS011;18622;51.998;10.440;2022-12-29T06:08:43;0.40;;;0.40;;
32106;SDS011;18622;51.998;10.440;2022-12-29T06:11:11;1.60;;;0.40;;
32106;SDS011;18622;51.998;10.440;2022-12-29T06:13:39;2.83;;;1.02;;
32106;SDS011;18622;51.998;10.440;2022-12-29T06:16:07;1.13;;;0.47;;
32106;SDS011;18622;51.998;10.440;2022-12-29T06:18:34;0.30;;;0.30;;
32106;SDS011;18622;51.998;10.440;2022-12-29T06:21:03;0.23;;;0.23;;
32106;SDS011;18622;51.998;10.440;2022-12-29T06:23:31;0.70;;;0.50;;
32106;SDS011;18622;51.998;10.440;2022-12-29T06:25:59;0.97;;;0.40;;
32106;SDS011;18622;51.998;10.440;2022-12-29T06:28:26;0.60;;;0.30;;
32106;SDS011;18622;51.998;10.440;2022-12-29T10:00:36;0.80;;;0.30;;
32106;SDS011;18622;51.998;10.440;2022-12-29T10:02:50;0.20;;;0.20;;
32106;SDS011;18622;51.998;10.440;2022-12-29T10:10:54;0.70;;;0.30;;
32106;SDS011;18622;51.998;10.440;2022-12-29T10:19:03;0.77;;;0.30;;
32106;SDS011;18622;51.998;10.440;2022-12-29T10:21:46;1.30;;;0.27;;
32106;SDS011;18622;51.998;10.440;2022-12-29T10:24:16;0.20;;;0.20;;
32106;SDS011;18622;51.998;10.440;2022-12-29T10:26:45;0.72;;;0.37;;
32106;SDS011;18622;51.998;10.440;2022-12-29T10:29:49;1.20;;;0.30;;
32106;SDS011;18622;51.998;10.440;2022-12-29T10:32:00;1.80;;;0.40;;
32106;SDS011;18622;51.998;10.440;2022-12-29T10:34:36;1.60;;;0.43;;
32106;SDS011;18622;51.998;10.440;2022-12-29T10:39:49;1.57;;;0.43;;
32106;SDS011;18622;51.998;10.440;2022-12-29T10:44:54;0.30;;;0.30;;
32106;SDS011;18622;51.998;10.440;2022-12-29T10:47:28;0.68;;;0.40;;
32106;SDS011;18622;51.998;10.440;2022-12-29T10:49:58;0.70;;;0.30;;
32106;SDS011;18622;51.998;10.440;2022-12-29T10:52:28;1.35;;;0.40;;
32106;SDS011;18622;51.998;10.440;2022-12-29T10:54:58;1.90;;;0.55;;
32106;SDS011;18622;51.998;10.440;2022-12-29T11:00:14;8.23;;;3.63;;
32106;SDS011;18622;51.998;10.440;2022-12-29T11:02:53;1.17;;;0.50;;
32106;SDS011;18622;51.998;10.440;2022-12-29T11:05:28;0.63;;;0.50;;
32106;SDS011;18622;51.998;10.440;2022-12-29T11:07:59;1.40;;;0.50;;
32106;SDS011;18622;51.998;10.440;2022-12-29T11:13:17;1.30;;;0.60;;
32106;SDS011;18622;51.998;10.440;2022-12-29T11:15:48;2.33;;;0.40;;
32106;SDS011;18622;51.998;10.440;2022-12-29T11:18:22;1.87;;;0.95;;
32106;SDS011;18622;51.998;10.440;2022-12-29T11:20:54;3.70;;;2.27;;
32106;SDS011;18622;51.998;10.440;2022-12-29T11:26:07;2.80;;;0.50;;
32106;SDS011;18622;51.998;10.440;2022-12-29T11:28:37;0.80;;;0.57;;
32106;SDS011;18622;51.998;10.440;2022-12-29T11:31:06;1.67;;;0.40;;
32106;SDS011;18622;51.998;10.440;2022-12-29T11:33:35;2.92;;;0.40;;
32106;SDS011;18622;51.998;10.440;2022-12-29T11:36:07;1.45;;;0.60;;
32106;SDS011;18622;51.998;10.440;2022-12-29T11:38:37;1.07;;;0.47;;
32106;SDS011;18622;51.998;10.440;2022-12-29T11:41:13;0.53;;;0.40;;
32106;SDS011;18622;51.998;10.440;2022-12-29T11:43:41;2.17;;;0.50;;
32106;SDS011;18622;51.998;10.440;2022-12-29T11:46:17;1.40;;;0.40;;
32106;SDS011;18622;51.998;10.440;2022-12-29T11:48:56;3.87;;;0.57;;
32106;SDS011;18622;51.998;10.440;2022-12-29T11:51:43;1.33;;;0.50;;
32106;SDS011;18622;51.998;10.440;2022-12-29T11:54:31;1.93;;;0.53;;
32106;SDS011;18622;51.998;10.440;2022-12-29T11:56:58;1.70;;;0.40;;
32106;SDS011;18622;51.998;10.440;2022-12-29T16:04:48;2.73;;;0.83;;
32106;SDS011;18622;51.998;10.440;2022-12-29T16:07:36;2.58;;;0.80;;
32106;SDS011;18622;51.998;10.440;2022-12-29T16:10:02;8.40;;;3.93;;
32106;SDS011;18622;51.998;10.440;2022-12-29T16:12:36;3.93;;;1.20;;
32106;SDS011;18622;51.998;10.440;2022-12-29T16:15:07;7.27;;;1.70;;
32106;SDS011;18622;51.998;10.440;2022-12-29T16:17:37;4.47;;;0.73;;
32106;SDS011;18622;51.998;10.440;2022-12-29T16:20:06;5.42;;;2.15;;
32106;SDS011;18622;51.998;10.440;2022-12-29T16:22:42;5.70;;;1.43;;
32106;SDS011;18622;51.998;10.440;2022-12-29T16:25:25;7.00;;;2.40;;
32106;SDS011;18622;51.998;10.440;2022-12-29T16:28:00;10.17;;;1.10;;
32106;SDS011;18622;51.998;10.440;2022-12-29T16:30:30;6.72;;;1.37;;
32106;SDS011;18622;51.998;10.440;2022-12-29T16:33:01;4.03;;;1.40;;
32106;SDS011;18622;51.998;10.440;2022-12-29T16:35:44;5.00;;;1.20;;
32106;SDS011;18622;51.998;10.440;2022-12-29T16:38:23;6.43;;;2.60;;
32106;SDS011;18622;51.998;10.440;2022-12-29T16:40:53;14.27;;;5.90;;
32106;SDS011;18622;51.998;10.440;2022-12-29T16:53:35;3.40;;;1.15;;
32106;SDS011;18622;51.998;10.440;2022-12-29T16:56:09;2.90;;;1.00;;
32106;SDS011;18622;51.998;10.440;2022-12-29T16:58:48;4.65;;;1.85;;
32106;SDS011;18622;51.998;10.440;2022-12-29T17:01:19;3.83;;;1.27;;
32106;SDS011;18622;51.998;10.440;2022-12-29T17:03:51;3.57;;;1.00;;
32106;SDS011;18622;51.998;10.440;2022-12-29T17:06:23;5.90;;;1.60;;
32106;SDS011;18622;51.998;10.440;2022-12-29T17:08:52;4.67;;;1.40;;
32106;SDS011;18622;51.998;10.440;2022-12-29T17:11:32;10.53;;;1.20;;
32106;SDS011;18622;51.998;10.440;2022-12-29T17:16:50;6.27;;;1.50;;
32106;SDS011;18622;51.998;10.440;2022-12-29T17:19:20;5.45;;;1.65;;
32106;SDS011;18622;51.998;10.440;2022-12-29T17:21:49;4.90;;;1.35;;
32106;SDS011;18622;51.998;10.440;2022-12-29T17:24:18;4.07;;;1.17;;
32106;SDS011;18622;51.998;10.440;2022-12-29T17:26:49;5.95;;;1.05;;
32106;SDS011;18622;51.998;10.440;2022-12-29T17:29:28;8.05;;;1.17;;
32106;SDS011;18622;51.998;10.440;2022-12-29T17:31:58;4.35;;;1.32;;
32106;SDS011;18622;51.998;10.440;2022-12-29T17:34:26;8.15;;;1.07;;
32106;SDS011;18622;51.998;10.440;2022-12-29T17:36:54;5.90;;;1.20;;
32106;SDS011;18622;51.998;10.440;2022-12-29T17:39:22;4.00;;;1.17;;
32106;SDS011;18622;51.998;10.440;2022-12-29T17:41:50;4.70;;;1.97;;
32106;SDS011;18622;51.998;10.440;2022-12-29T17:44:18;5.30;;;1.37;;
32106;SDS011;18622;51.998;10.440;2022-12-29T17:46:47;3.52;;;0.70;;
32106;SDS011;18622;51.998;10.440;2022-12-29T17:49:16;3.53;;;0.90;;
32106;SDS011;18622;51.998;10.440;2022-12-29T17:51:44;5.72;;;1.10;;
32106;SDS011;18622;51.998;10.440;2022-12-29T17:54:19;5.53;;;1.65;;
32106;SDS011;18622;51.998;10.440;2022-12-29T17:56:49;4.17;;;1.07;;
32106;SDS011;18622;51.998;10.440;2022-12-29T17:59:17;3.87;;;1.23;;
32106;SDS011;18622;51.998;10.440;2022-12-29T18:01:46;6.23;;;1.47;;
32106;SDS011;18622;51.998;10.440;2022-12-29T18:04:15;4.90;;;0.78;;
32106;SDS011;18622;51.998;10.440;2022-12-29T18:06:45;2.27;;;0.95;;
32106;SDS011;18622;51.998;10.440;2022-12-29T18:09:13;2.55;;;1.17;;
32106;SDS011;18622;51.998;10.440;2022-12-29T18:11:43;2.52;;;1.00;;
32106;SDS011;18622;51.998;10.440;2022-12-29T18:14:12;3.58;;;0.82;;
32106;SDS011;18622;51.998;10.440;2022-12-29T18:16:40;3.58;;;1.12;;
32106;SDS011;18622;51.998;10.440;2022-12-29T18:19:08;0.83;;;0.57;;
32106;SDS011;18622;51.998;10.440;2022-12-29T18:21:36;4.03;;;0.97;;
32106;SDS011;18622;51.998;10.440;2022-12-29T18:24:05;4.83;;;1.07;;
32106;SDS011;18622;51.998;10.440;2022-12-29T18:26:34;8.03;;;1.85;;
32106;SDS011;18622;51.998;10.440;2022-12-29T18:29:02;4.57;;;1.03;;
32106;SDS011;18622;51.998;10.440;2022-12-29T18:31:31;4.23;;;0.80;;
32106;SDS011;18622;51.998;10.440;2022-12-29T18:34:03;3.35;;;0.70;;
32106;SDS011;18622;51.998;10.440;2022-12-29T18:36:31;6.97;;;1.10;;
32106;SDS011;18622;51.998;10.440;2022-12-29T18:39:00;1.93;;;0.73;;
32106;SDS011;18622;51.998;10.440;2022-12-29T18:41:28;6.58;;;1.02;;
32106;SDS011;18622;51.998;10.440;2022-12-29T18:43:56;5.87;;;1.97;;
32106;SDS011;18622;51.998;10.440;2022-12-29T18:46:24;2.52;;;0.90;;
32106;SDS011;18622;51.998;10.440;2022-12-29T18:48:52;7.37;;;1.17;;
32106;SDS011;18622;51.998;10.440;2022-12-29T18:51:22;6.30;;;1.00;;
32106;SDS011;18622;51.998;10.440;2022-12-29T18:53:50;2.35;;;0.62;;
32106;SDS011;18622;51.998;10.440;2022-12-29T18:56:19;5.50;;;1.13;;
32106;SDS011;18622;51.998;10.440;2022-12-29T18:58:47;4.95;;;1.02;;
32106;SDS011;18622;51.998;10.440;2022-12-29T19:01:19;9.43;;;1.33;;
32106;SDS011;18622;51.998;10.440;2022-12-29T19:03:48;4.03;;;1.00;;
32106;SDS011;18622;51.998;10.440;2022-12-29T19:06:17;11.10;;;1.30;;
32106;SDS011;18622;51.998;10.440;2022-12-29T19:08:45;4.25;;;1.12;;
32106;SDS011;18622;51.998;10.440;2022-12-29T19:11:13;4.27;;;1.00;;
32106;SDS011;18622;51.998;10.440;2022-12-29T19:13:42;3.30;;;0.95;;
32106;SDS011;18622;51.998;10.440;2022-12-29T19:16:17;4.10;;;1.13;;
32106;SDS011;18622;51.998;10.440;2022-12-29T19:18:47;3.67;;;0.77;;
32106;SDS011;18622;51.998;10.440;2022-12-29T19:21:15;5.60;;;1.15;;
32106;SDS011;18622;51.998;10.440;2022-12-29T19:23:44;3.75;;;0.65;;
32106;SDS011;18622;51.998;10.440;2022-12-29T19:26:29;6.37;;;0.97;;
32106;SDS011;18622;51.998;10.440;2022-12-29T19:28:59;5.00;;;1.20;;
32106;SDS011;18622;51.998;10.440;2022-12-29T19:31:27;5.13;;;1.30;;
32106;SDS011;18622;51.998;10.440;2022-12-29T19:33:55;8.17;;;2.20;;
32106;SDS011;18622;51.998;10.440;2022-12-29T19:36:22;3.00;;;0.93;;
32106;SDS011;18622;51.998;10.440;2022-12-29T19:38:50;6.13;;;0.93;;
32106;SDS011;18622;51.998;10.440;2022-12-29T19:41:19;3.42;;;0.80;;
32106;SDS011;18622;51.998;10.440;2022-12-29T19:43:47;2.12;;;0.80;;
32106;SDS011;18622;51.998;10.440;2022-12-29T19:46:16;10.33;;;2.30;;
32106;SDS011;18622;51.998;10.440;2022-12-29T19:48:45;4.07;;;0.80;;
32106;SDS011;18622;51.998;10.440;2022-12-29T19:51:13;4.27;;;1.10;;
32106;SDS011;18622;51.998;10.440;2022-12-29T19:53:42;7.10;;;1.17;;
32106;SDS011;18622;51.998;10.440;2022-12-29T19:56:11;4.75;;;0.90;;
32106;SDS011;18622;51.998;10.440;2022-12-29T19:58:39;4.75;;;0.75;;
32106;SDS011;18622;51.998;10.440;2022-12-29T20:01:09;6.37;;;1.90;;
32106;SDS011;18622;51.998;10.440;2022-12-29T20:03:38;1.70;;;0.85;;
32106;SDS011;18622;51.998;10.440;2022-12-29T20:06:07;3.13;;;0.90;;
32106;SDS011;18622;51.998;10.440;2022-12-29T20:11:09;4.30;;;1.27;;
32106;SDS011;18622;51.998;10.440;2022-12-29T20:13:38;4.77;;;1.03;;
32106;SDS011;18622;51.998;10.440;2022-12-29T20:16:07;5.00;;;0.98;;
32106;SDS011;18622;51.998;10.440;2022-12-29T20:18:37;5.87;;;1.40;;
32106;SDS011;18622;51.998;10.440;2022-12-29T20:21:24;6.60;;;1.30;;
32106;SDS011;18622;51.998;10.440;2022-12-29T20:23:42;11.27;;;1.27;;
32106;SDS011;18622;51.998;10.440;2022-12-29T20:26:20;5.97;;;1.22;;
32106;SDS011;18622;51.998;10.440;2022-12-29T20:28:51;5.08;;;1.12;;
32106;SDS011;18622;51.998;10.440;2022-12-29T20:33:53;5.47;;;1.43;;
32106;SDS011;18622;51.998;10.440;2022-12-29T20:36:27;5.30;;;0.83;;
32106;SDS011;18622;51.998;10.440;2022-12-29T20:38:52;6.70;;;1.72;;
32106;SDS011;18622;51.998;10.440;2022-12-29T20:41:21;4.87;;;1.00;;
32106;SDS011;18622;51.998;10.440;2022-12-29T20:43:49;6.00;;;1.30;;
32106;SDS011;18622;51.998;10.440;2022-12-29T20:46:20;6.90;;;1.23;;
32106;SDS011;18622;51.998;10.440;2022-12-29T20:48:49;8.97;;;1.57;;
32106;SDS011;18622;51.998;10.440;2022-12-29T20:51:17;7.37;;;1.20;;
32106;SDS011;18622;51.998;10.440;2022-12-29T20:53:46;6.10;;;1.30;;
32106;SDS011;18622;51.998;10.440;2022-12-29T20:56:15;5.73;;;1.30;;
32106;SDS011;18622;51.998;10.440;2022-12-29T20:58:45;6.55;;;1.00;;
32106;SDS011;18622;51.998;10.440;2022-12-29T21:01:15;9.50;;;2.92;;
32106;SDS011;18622;51.998;10.440;2022-12-29T21:03:44;4.67;;;1.00;;
32106;SDS011;18622;51.998;10.440;2022-12-29T21:06:12;3.07;;;1.23;;
32106;SDS011;18622;51.998;10.440;2022-12-29T21:08:41;6.05;;;1.50;;
32106;SDS011;18622;51.998;10.440;2022-12-29T21:11:09;8.28;;;1.42;;
32106;SDS011;18622;51.998;10.440;2022-12-29T21:13:37;7.93;;;1.10;;
32106;SDS011;18622;51.998;10.440;2022-12-29T21:16:06;7.57;;;1.50;;
32106;SDS011;18622;51.998;10.440;2022-12-29T21:18:35;6.70;;;1.70;;
32106;SDS011;18622;51.998;10.440;2022-12-29T21:21:04;7.13;;;1.50;;
32106;SDS011;18622;51.998;10.440;2022-12-29T21:23:37;9.77;;;1.40;;
32106;SDS011;18622;51.998;10.440;2022-12-29T21:26:06;10.48;;;2.27;;
32106;SDS011;18622;51.998;10.440;2022-12-29T21:28:38;5.97;;;1.25;;
32106;SDS011;18622;51.998;10.440;2022-12-29T21:31:17;12.98;;;1.82;;
32106;SDS011;18622;51.998;10.440;2022-12-29T21:33:54;9.10;;;1.90;;
32106;SDS011;18622;51.998;10.440;2022-12-29T21:36:23;8.98;;;1.45;;
32106;SDS011;18622;51.998;10.440;2022-12-29T21:38:51;10.38;;;1.30;;
32106;SDS011;18622;51.998;10.440;2022-12-29T21:41:19;7.97;;;1.35;;
32106;SDS011;18622;51.998;10.440;2022-12-29T21:43:48;8.93;;;1.30;;
32106;SDS011;18622;51.998;10.440;2022-12-29T21:46:34;13.03;;;1.30;;
32106;SDS011;18622;51.998;10.440;2022-12-29T21:49:03;9.00;;;1.42;;
32106;SDS011;18622;51.998;10.440;2022-12-29T21:51:32;3.42;;;0.90;;
32106;SDS011;18622;51.998;10.440;2022-12-29T21:54:24;7.17;;;1.10;;
32106;SDS011;18622;51.998;10.440;2022-12-29T21:57:07;5.85;;;1.20;;
32106;SDS011;18622;51.998;10.440;2022-12-29T21:59:36;8.33;;;1.45;;
